createdAt,value
2022-11-28T00:01:19.821Z,101143.88
2022-11-28T00:03:46.398Z,101137.16
2022-11-28T00:06:13.055Z,101141.66
2022-11-28T00:08:40.405Z,101129.75
2022-11-28T00:11:09.264Z,101134.69
2022-11-28T00:13:36.716Z,101137.47
2022-11-28T00:16:06.793Z,101134.69
2022-11-28T00:18:33.584Z,101132.03
2022-11-28T00:21:08.845Z,101135.66
2022-11-28T00:23:35.827Z,101132.03
2022-11-28T00:26:11.677Z,101127.56
2022-11-28T00:28:39.756Z,101126.00
2022-11-28T00:31:07.107Z,101115.81
2022-11-28T00:33:33.934Z,101117.47
2022-11-28T00:36:04.995Z,101114.44
2022-11-28T00:38:31.765Z,101097.81
2022-11-28T00:41:06.621Z,101091.38
2022-11-28T00:43:33.660Z,101108.28
2022-11-28T00:46:00.350Z,101103.94
2022-11-28T00:48:27.237Z,101102.13
2022-11-28T00:50:55.083Z,101101.31
2022-11-28T00:53:21.957Z,101102.13
2022-11-28T00:55:48.524Z,101088.31
2022-11-28T00:58:15.064Z,101102.13
2022-11-28T01:00:41.788Z,101086.47
2022-11-28T01:03:08.402Z,101091.53
2022-11-28T01:05:40.616Z,101081.91
2022-11-28T01:08:08.037Z,101075.63
2022-11-28T01:10:34.587Z,101065.84
2022-11-28T01:13:01.160Z,101065.00
2022-11-28T01:15:28.365Z,101060.66
2022-11-28T01:17:55.368Z,101035.38
2022-11-28T01:20:22.357Z,101065.00
2022-11-28T01:22:48.951Z,101052.97
2022-11-28T01:25:16.478Z,101060.66
2022-11-28T01:27:43.026Z,101056.06
2022-11-28T01:30:10.199Z,101059.69
2022-11-28T01:32:36.733Z,101058.72
2022-11-28T01:35:03.758Z,101063.06
2022-11-28T01:37:30.904Z,101053.69
2022-11-28T01:39:57.974Z,101057.88
2022-11-28T01:42:25.050Z,101050.78
2022-11-28T01:44:54.220Z,101049.81
2022-11-28T01:47:29.823Z,101054.25
2022-11-28T01:49:56.937Z,101054.25
2022-11-28T01:52:24.397Z,101044.06
2022-11-28T01:54:56.042Z,101044.75
2022-11-28T01:57:25.502Z,101048.25
2022-11-28T02:00:11.718Z,101055.25
2022-11-28T02:02:55.081Z,101050.91
2022-11-28T02:05:22.800Z,101039.72
2022-11-28T02:07:51.418Z,101046.56
2022-11-28T02:10:28.723Z,101031.91
2022-11-28T02:13:21.287Z,101049.22
2022-11-28T02:16:03.596Z,101040.44
2022-11-28T02:18:50.541Z,101043.06
2022-11-28T02:21:29.441Z,101036.94
2022-11-28T02:23:59.033Z,101036.81
2022-11-28T02:26:31.299Z,101033.31
2022-11-28T02:29:23.515Z,101029.28
2022-11-28T02:32:14.449Z,101027.16
2022-11-28T02:35:03.446Z,101014.88
2022-11-28T02:38:02.234Z,101022.81
2022-11-28T02:40:41.022Z,101026.31
2022-11-28T02:43:20.600Z,101027.28
2022-11-28T02:46:02.777Z,101028.13
2022-11-28T02:48:42.058Z,101028.13
2022-11-28T02:51:21.146Z,101019.31
2022-11-28T02:53:49.669Z,101032.59
2022-11-28T02:56:16.442Z,101031.75
2022-11-28T02:58:42.985Z,101027.28
2022-11-28T03:01:19.715Z,101026.63
2022-11-28T03:04:05.123Z,101028.31
2022-11-28T03:06:41.796Z,101030.94
2022-11-28T03:09:33.275Z,101030.09
2022-11-28T03:12:08.605Z,101030.09
2022-11-28T03:14:47.603Z,101032.91
2022-11-28T03:17:25.873Z,101021.72
2022-11-28T03:20:14.080Z,101026.75
2022-11-28T03:23:08.512Z,101023.25
2022-11-28T03:26:19.103Z,101018.94
2022-11-28T03:29:11.933Z,101019.75
2022-11-28T03:31:48.347Z,101020.16
2022-11-28T03:34:19.841Z,101027.84
2022-11-28T03:37:00.152Z,101025.34
2022-11-28T03:39:31.979Z,101015.25
2022-11-28T03:42:07.839Z,101029.66
2022-11-28T03:44:44.911Z,101021.84
2022-11-28T03:47:12.281Z,101018.63
2022-11-28T03:49:42.844Z,101016.25
2022-11-28T03:52:16.901Z,101023.66
2022-11-28T03:54:52.711Z,101022.81
2022-11-28T03:57:31.288Z,101019.31
2022-11-28T04:00:00.349Z,101017.63
2022-11-28T04:02:34.238Z,101011.91
2022-11-28T04:05:18.137Z,101016.66
2022-11-28T04:07:51.964Z,101014.44
2022-11-28T04:10:30.066Z,101024.22
2022-11-28T04:13:07.112Z,101028.25
2022-11-28T04:15:38.749Z,101013.25
2022-11-28T04:18:30.098Z,101032.59
2022-11-28T04:21:44.470Z,101026.69
2022-11-28T04:24:18.253Z,101026.69
2022-11-28T04:27:17.414Z,101027.41
2022-11-28T04:29:54.055Z,101031.03
2022-11-28T04:32:22.504Z,101032.59
2022-11-28T04:34:54.890Z,101030.19
2022-11-28T04:37:23.166Z,101036.06
2022-11-28T04:39:50.734Z,101027.69
2022-11-28T04:42:31.028Z,101022.22
2022-11-28T04:45:03.623Z,101032.59
2022-11-28T04:47:30.408Z,101030.06
2022-11-28T04:49:57.056Z,101036.19
2022-11-28T04:52:35.412Z,101041.50
2022-11-28T04:55:10.825Z,101042.47
2022-11-28T04:57:44.922Z,101045.13
2022-11-28T05:00:15.545Z,101035.50
2022-11-28T05:02:44.077Z,101033.69
2022-11-28T05:05:15.479Z,101031.88
2022-11-28T05:07:42.664Z,101031.03
2022-11-28T05:10:12.048Z,101034.53
2022-11-28T05:12:38.617Z,101038.16
2022-11-28T05:15:06.243Z,101040.78
2022-11-28T05:17:33.622Z,101044.28
2022-11-28T05:20:02.554Z,101048.91
2022-11-28T05:22:29.193Z,101053.94
2022-11-28T05:24:55.769Z,101055.75
2022-11-28T05:27:22.241Z,101058.38
2022-11-28T05:29:52.211Z,101058.38
2022-11-28T05:32:19.045Z,101061.03
2022-11-28T05:34:45.605Z,101068.16
2022-11-28T05:37:12.686Z,101064.66
2022-11-28T05:39:39.514Z,101069.13
2022-11-28T05:42:06.327Z,101076.13
2022-11-28T05:44:32.848Z,101060.13
2022-11-28T05:46:59.861Z,101069.13
2022-11-28T05:49:27.169Z,101060.63
2022-11-28T05:51:53.750Z,101067.59
2022-11-28T05:54:20.267Z,101071.94
2022-11-28T05:56:46.850Z,101076.25
2022-11-28T05:59:13.980Z,101070.38
2022-11-28T06:01:40.566Z,101076.25
2022-11-28T06:04:07.226Z,101085.03
2022-11-28T06:06:37.736Z,101079.91
2022-11-28T06:09:06.183Z,101080.56
2022-11-28T06:11:34.055Z,101073.75
2022-11-28T06:14:01.121Z,101077.06
2022-11-28T06:16:29.746Z,101085.88
2022-11-28T06:18:59.070Z,101083.22
2022-11-28T06:21:26.737Z,101092.03
2022-11-28T06:23:54.430Z,101092.16
2022-11-28T06:26:22.867Z,101088.69
2022-11-28T06:28:50.133Z,101093.56
2022-11-28T06:31:23.554Z,101083.22
2022-11-28T06:33:50.763Z,101084.91
2022-11-28T06:36:18.797Z,101087.56
2022-11-28T06:38:46.224Z,101102.50
2022-11-28T06:41:16.256Z,101095.81
2022-11-28T06:43:43.054Z,101105.16
2022-11-28T06:46:17.998Z,101102.25
2022-11-28T06:48:46.206Z,101099.13
2022-11-28T06:51:13.446Z,101098.03
2022-11-28T06:53:40.766Z,101112.84
2022-11-28T06:56:09.602Z,101122.47
2022-11-28T06:58:36.683Z,101120.69
2022-11-28T07:01:15.855Z,101117.19
2022-11-28T07:03:43.812Z,101117.91
2022-11-28T07:06:11.922Z,101113.44
2022-11-28T07:08:38.611Z,101108.38
2022-11-28T07:11:12.718Z,101112.59
2022-11-28T07:13:40.478Z,101113.44
2022-11-28T07:16:13.557Z,101115.94
2022-11-28T07:18:40.151Z,101118.59
2022-11-28T07:21:06.636Z,101128.25
2022-11-28T07:23:33.228Z,101122.94
2022-11-28T07:26:01.313Z,101119.56
2022-11-28T07:28:29.625Z,101129.22
2022-11-28T07:31:05.801Z,101135.19
2022-11-28T07:33:33.856Z,101136.88
2022-11-28T07:36:11.387Z,101143.31
2022-11-28T07:38:38.106Z,101141.50
2022-11-28T07:41:13.005Z,101147.78
2022-11-28T07:43:44.507Z,101154.47
2022-11-28T07:46:16.393Z,101157.13
2022-11-28T07:48:43.784Z,101158.09
2022-11-28T07:51:19.186Z,101159.78
2022-11-28T07:53:46.582Z,101168.59
2022-11-28T07:56:19.197Z,101165.09
2022-11-28T07:58:47.682Z,101160.06
2022-11-28T08:01:21.059Z,101157.97
2022-11-28T08:03:49.176Z,101164.97
2022-11-28T08:06:16.982Z,101165.94
2022-11-28T08:08:45.505Z,101149.47
2022-11-28T08:11:12.620Z,101148.34
2022-11-28T08:13:40.441Z,101146.66
2022-11-28T08:16:16.950Z,101164.00
2022-11-28T08:18:44.090Z,101167.47
2022-11-28T08:21:20.009Z,101164.00
2022-11-28T08:23:46.901Z,101149.47
2022-11-28T08:26:15.897Z,101162.19
2022-11-28T08:28:43.746Z,101162.19
2022-11-28T08:31:15.457Z,101150.00
2022-11-28T08:33:42.523Z,101164.84
2022-11-28T08:36:11.858Z,101164.00
2022-11-28T08:38:38.695Z,101170.13
2022-11-28T08:41:07.419Z,101176.28
2022-11-28T08:43:36.750Z,101160.31
2022-11-28T08:46:04.965Z,101166.78
2022-11-28T08:48:31.678Z,101169.41
2022-11-28T08:50:58.215Z,101176.41
2022-11-28T08:53:24.764Z,101179.78
2022-11-28T08:55:51.371Z,101180.75
2022-11-28T08:58:18.315Z,101174.72
2022-11-28T09:00:45.280Z,101178.09
2022-11-28T09:03:15.291Z,101180.50
2022-11-28T09:05:45.427Z,101174.47
2022-11-28T09:08:18.052Z,101175.19
2022-11-28T09:10:45.838Z,101173.38
2022-11-28T09:13:14.371Z,101182.19
2022-11-28T09:15:42.829Z,101183.00
2022-11-28T09:18:11.369Z,101182.44
2022-11-28T09:20:37.889Z,101182.88
2022-11-28T09:23:04.909Z,101193.50
2022-11-28T09:25:31.553Z,101182.88
2022-11-28T09:28:01.260Z,101192.53
2022-11-28T09:30:28.202Z,101182.31
2022-11-28T09:32:54.776Z,101193.38
2022-11-28T09:35:21.388Z,101194.19
2022-11-28T09:37:47.910Z,101190.13
2022-11-28T09:40:22.588Z,101187.34
2022-11-28T09:42:49.863Z,101199.34
2022-11-28T09:45:22.531Z,101200.31
2022-11-28T09:47:56.731Z,101202.13
2022-11-28T09:50:30.555Z,101207.44
2022-11-28T09:53:29.920Z,101206.03
2022-11-28T09:56:00.762Z,101217.81
2022-11-28T09:58:55.403Z,101217.81
2022-11-28T10:01:24.933Z,101212.50
2022-11-28T10:04:09.739Z,101203.69
2022-11-28T10:06:53.027Z,101205.38
2022-11-28T10:09:38.230Z,101208.03
2022-11-28T10:12:42.102Z,101207.19
2022-11-28T10:15:23.930Z,101208.03
2022-11-28T10:18:14.811Z,101203.81
2022-11-28T10:20:47.856Z,101217.66
2022-11-28T10:23:54.447Z,101218.63
2022-11-28T10:26:31.396Z,101220.19
2022-11-28T10:29:02.808Z,101214.03
2022-11-28T10:31:38.539Z,101218.38
2022-11-28T10:34:37.161Z,101233.47
2022-11-28T10:37:11.274Z,101221.16
2022-11-28T10:39:42.290Z,101222.84
2022-11-28T10:42:28.822Z,101216.56
2022-11-28T10:45:19.264Z,101223.69
2022-11-28T10:47:55.065Z,101242.13
2022-11-28T10:50:29.301Z,101235.16
2022-11-28T10:53:14.348Z,101227.19
2022-11-28T10:55:59.195Z,101227.06
2022-11-28T10:58:55.881Z,101230.56
2022-11-28T11:01:23.033Z,101220.19
2022-11-28T11:03:50.118Z,101226.09
2022-11-28T11:06:17.124Z,101218.13
2022-11-28T11:08:46.054Z,101225.13
2022-11-28T11:11:52.390Z,101222.47
2022-11-28T11:14:37.272Z,101208.63
2022-11-28T11:17:04.026Z,101218.69
2022-11-28T11:19:36.780Z,101201.38
2022-11-28T11:22:05.208Z,101210.16
2022-11-28T11:24:32.282Z,101214.38
2022-11-28T11:27:15.219Z,101211.00
2022-11-28T11:29:44.040Z,101223.84
2022-11-28T11:32:29.824Z,101225.66
2022-11-28T11:34:58.562Z,101227.34
2022-11-28T11:37:31.678Z,101205.00
2022-11-28T11:39:59.719Z,101222.03
2022-11-28T11:42:31.464Z,101228.91
2022-11-28T11:45:24.200Z,101225.41
2022-11-28T11:47:50.759Z,101231.56
2022-11-28T11:50:21.364Z,101224.69
2022-11-28T11:53:11.735Z,101233.25
2022-11-28T11:55:48.847Z,101233.25
2022-11-28T11:58:21.996Z,101232.28
2022-11-28T12:00:49.067Z,101221.78
2022-11-28T12:03:27.411Z,101224.31
2022-11-28T12:06:16.625Z,101226.38
2022-11-28T12:09:12.310Z,101228.78
2022-11-28T12:11:50.804Z,101233.13
2022-11-28T12:14:28.904Z,101229.88
2022-11-28T12:17:25.625Z,101234.94
2022-11-28T12:19:53.174Z,101233.13
2022-11-28T12:22:31.909Z,101229.50
2022-11-28T12:25:23.073Z,101227.81
2022-11-28T12:28:15.429Z,101216.19
2022-11-28T12:31:00.348Z,101239.25
2022-11-28T12:33:43.494Z,101231.44
2022-11-28T12:36:37.006Z,101216.31
2022-11-28T12:39:24.307Z,101242.75
2022-11-28T12:42:18.471Z,101250.72
2022-11-28T12:45:15.924Z,101249.75
2022-11-28T12:48:01.715Z,101244.44
2022-11-28T12:50:39.668Z,101244.44
2022-11-28T12:53:24.537Z,101239.97
2022-11-28T12:56:25.853Z,101245.41
2022-11-28T12:59:25.845Z,101241.66
2022-11-28T13:02:22.440Z,101237.72
2022-11-28T13:05:05.075Z,101251.44
2022-11-28T13:08:13.592Z,101250.47
2022-11-28T13:10:50.392Z,101251.00
2022-11-28T13:13:44.979Z,101260.66
2022-11-28T13:17:05.698Z,101264.88
2022-11-28T13:19:55.061Z,101258.84
2022-11-28T13:22:25.137Z,101266.28
2022-11-28T13:25:40.306Z,101271.59
2022-11-28T13:28:30.953Z,101254.25
2022-11-28T13:31:07.628Z,101260.00
2022-11-28T13:33:49.852Z,101255.56
2022-11-28T13:39:41.006Z,101257.63
2022-11-28T13:42:36.535Z,101252.91
2022-11-28T13:45:07.236Z,101249.41
2022-11-28T13:47:36.908Z,101254.72
2022-11-28T13:50:24.976Z,101253.72
2022-11-28T13:53:21.853Z,101256.66
2022-11-28T13:56:15.885Z,101264.63
2022-11-28T13:58:56.974Z,101274.00
2022-11-28T14:01:26.917Z,101269.91
2022-11-28T14:04:13.719Z,101280.16
2022-11-28T14:06:59.185Z,101276.66
2022-11-28T14:09:44.810Z,101281.97
2022-11-28T14:12:28.854Z,101284.75
2022-11-28T14:15:06.456Z,101284.63
2022-11-28T14:18:19.155Z,101285.47
2022-11-28T14:21:07.428Z,101303.22
2022-11-28T14:23:40.385Z,101298.75
2022-11-28T14:26:45.425Z,101304.03
2022-11-28T14:29:22.911Z,101292.97
2022-11-28T14:32:07.009Z,101308.50
2022-11-28T14:34:44.822Z,101320.81
2022-11-28T14:37:47.650Z,101316.47
2022-11-28T14:41:03.066Z,101316.31
2022-11-28T14:43:35.660Z,101311.00
2022-11-28T14:46:21.538Z,101318.97
2022-11-28T14:49:00.572Z,101311.00
2022-11-28T14:51:45.631Z,101314.50
2022-11-28T14:54:25.164Z,101311.84
2022-11-28T14:56:58.228Z,101311.84
2022-11-28T14:59:36.965Z,101304.88
2022-11-28T15:02:12.696Z,101318.72
2022-11-28T15:05:05.532Z,101311.00
2022-11-28T15:08:10.139Z,101313.53
2022-11-28T15:10:54.800Z,101310.19
2022-11-28T15:13:42.957Z,101321.50
2022-11-28T15:16:15.186Z,101316.19
2022-11-28T15:18:49.070Z,101308.50
2022-11-28T15:21:18.081Z,101317.88
2022-11-28T15:23:46.629Z,101316.47
2022-11-28T15:26:20.322Z,101325.13
2022-11-28T15:28:46.928Z,101326.69
2022-11-28T15:31:22.669Z,101320.09
2022-11-28T15:33:49.869Z,101332.13
2022-11-28T15:36:37.337Z,101336.59
2022-11-28T15:39:04.060Z,101341.91
2022-11-28T15:41:30.665Z,101336.03
2022-11-28T15:43:57.594Z,101349.19
2022-11-28T15:46:32.837Z,101346.25
2022-11-28T15:49:01.475Z,101356.72
2022-11-28T15:51:33.776Z,101354.91
2022-11-28T15:54:31.484Z,101365.53
2022-11-28T15:56:59.121Z,101368.31
2022-11-28T15:59:26.218Z,101368.19
2022-11-28T16:02:00.088Z,101369.88
2022-11-28T16:04:29.642Z,101379.66
2022-11-28T16:06:59.554Z,101382.31
2022-11-28T16:09:31.031Z,101377.00
2022-11-28T16:11:58.053Z,101381.34
2022-11-28T16:14:29.294Z,101384.38
2022-11-28T16:17:00.784Z,101385.09
2022-11-28T16:19:36.619Z,101392.94
2022-11-28T16:22:06.097Z,101391.25
2022-11-28T16:24:43.235Z,101389.44
2022-11-28T16:27:25.118Z,101391.13
2022-11-28T16:29:51.800Z,101387.63
2022-11-28T16:32:36.807Z,101391.13
2022-11-28T16:35:04.945Z,101390.66
2022-11-28T16:37:32.993Z,101400.75
2022-11-28T16:40:14.978Z,101403.53
2022-11-28T16:42:41.736Z,101393.78
2022-11-28T16:45:17.949Z,101392.09
2022-11-28T16:47:45.721Z,101400.03
2022-11-28T16:50:22.079Z,101405.22
2022-11-28T16:53:00.969Z,101399.19
2022-11-28T16:55:27.483Z,101399.91
2022-11-28T16:58:03.768Z,101404.25
2022-11-28T17:00:30.296Z,101401.59
2022-11-28T17:02:56.813Z,101409.56
2022-11-28T17:05:23.387Z,101409.56
2022-11-28T17:07:49.953Z,101413.19
2022-11-28T17:10:16.826Z,101419.34
2022-11-28T17:12:43.389Z,101416.81
2022-11-28T17:15:22.784Z,101417.78
2022-11-28T17:17:49.920Z,101427.31
2022-11-28T17:20:17.781Z,101427.31
2022-11-28T17:22:48.214Z,101433.47
2022-11-28T17:25:17.798Z,101427.31
2022-11-28T17:27:45.282Z,101429.97
2022-11-28T17:30:18.104Z,101427.31
2022-11-28T17:32:47.128Z,101435.41
2022-11-28T17:35:20.118Z,101432.88
2022-11-28T17:37:46.668Z,101426.28
2022-11-28T17:40:32.011Z,101438.91
2022-11-28T17:42:59.904Z,101441.56
2022-11-28T17:45:27.121Z,101449.53
2022-11-28T17:47:54.646Z,101446.16
2022-11-28T17:50:21.728Z,101449.66
2022-11-28T17:52:48.777Z,101447.84
2022-11-28T17:55:18.235Z,101447.72
2022-11-28T17:57:44.788Z,101453.03
2022-11-28T18:00:13.088Z,101445.19
2022-11-28T18:02:39.742Z,101448.69
2022-11-28T18:05:06.502Z,101442.53
2022-11-28T18:07:33.177Z,101449.66
2022-11-28T18:09:59.732Z,101461.13
2022-11-28T18:12:26.396Z,101459.44
2022-11-28T18:14:53.131Z,101447.25
2022-11-28T18:17:20.168Z,101461.97
2022-11-28T18:19:46.872Z,101456.22
2022-11-28T18:22:13.552Z,101457.50
2022-11-28T18:24:40.090Z,101465.47
2022-11-28T18:27:06.656Z,101469.91
2022-11-28T18:29:34.313Z,101466.31
2022-11-28T18:32:01.505Z,101472.44
2022-11-28T18:34:28.689Z,101472.44
2022-11-28T18:37:00.673Z,101476.91
2022-11-28T18:39:27.715Z,101473.53
2022-11-28T18:41:54.310Z,101482.34
2022-11-28T18:44:20.876Z,101491.88
2022-11-28T18:46:47.410Z,101492.72
2022-11-28T18:49:15.568Z,101489.34
2022-11-28T18:51:42.133Z,101495.50
2022-11-28T18:54:09.377Z,101496.47
2022-11-28T18:56:35.976Z,101492.84
2022-11-28T18:59:02.772Z,101503.34
2022-11-28T19:01:32.462Z,101514.94
2022-11-28T19:04:05.592Z,101507.81
2022-11-28T19:06:34.482Z,101506.13
2022-11-28T19:09:03.192Z,101488.75
2022-11-28T19:11:30.216Z,101508.66
2022-11-28T19:13:57.907Z,101505.03
2022-11-28T19:16:27.221Z,101506.00
2022-11-28T19:18:54.809Z,101511.31
2022-11-28T19:21:26.519Z,101502.75
2022-11-28T19:23:55.073Z,101511.31
2022-11-28T19:26:24.172Z,101511.44
2022-11-28T19:28:51.344Z,101513.13
2022-11-28T19:31:21.158Z,101519.28
2022-11-28T19:34:00.851Z,101522.06
2022-11-28T19:36:30.425Z,101514.94
2022-11-28T19:38:58.190Z,101519.28
2022-11-28T19:41:25.666Z,101522.91
2022-11-28T19:43:52.234Z,101521.09
2022-11-28T19:46:19.019Z,101512.41
2022-11-28T19:48:46.349Z,101511.44
2022-11-28T19:51:14.116Z,101518.56
2022-11-28T19:53:42.653Z,101522.91
2022-11-28T19:56:13.001Z,101515.19
2022-11-28T19:58:39.998Z,101522.06
2022-11-28T20:01:12.490Z,101517.13
2022-11-28T20:03:41.124Z,101530.03
2022-11-28T20:06:10.083Z,101529.19
2022-11-28T20:08:37.013Z,101523.88
2022-11-28T20:11:10.019Z,101536.31
2022-11-28T20:13:37.136Z,101525.81
2022-11-28T20:16:08.812Z,101539.81
2022-11-28T20:18:39.893Z,101535.56
2022-11-28T20:21:17.796Z,101539.91
2022-11-28T20:23:47.560Z,101541.59
2022-11-28T20:26:15.569Z,101546.19
2022-11-28T20:28:43.085Z,101549.81
2022-11-28T20:31:24.954Z,101555.84
2022-11-28T20:33:53.381Z,101571.66
2022-11-28T20:36:22.748Z,101562.97
2022-11-28T20:38:50.082Z,101551.63
2022-11-28T20:41:20.661Z,101553.25
2022-11-28T20:43:47.630Z,101565.63
2022-11-28T20:46:22.766Z,101568.41
2022-11-28T20:48:49.693Z,101570.09
2022-11-28T20:51:22.766Z,101573.59
2022-11-28T20:53:49.357Z,101558.56
2022-11-28T20:56:21.241Z,101581.44
2022-11-28T20:58:48.509Z,101583.25
2022-11-28T21:01:17.384Z,101590.25
2022-11-28T21:03:45.001Z,101595.69
2022-11-28T21:06:11.563Z,101591.34
2022-11-28T21:08:38.925Z,101601.84
2022-11-28T21:11:10.996Z,101592.41
2022-11-28T21:13:37.977Z,101595.69
2022-11-28T21:16:07.530Z,101594.84
2022-11-28T21:18:37.308Z,101590.38
2022-11-28T21:21:19.095Z,101591.22
2022-11-28T21:23:46.231Z,101588.56
2022-11-28T21:26:16.513Z,101586.03
2022-11-28T21:28:45.573Z,101593.88
2022-11-28T21:31:18.596Z,101604.50
2022-11-28T21:33:49.172Z,101607.16
2022-11-28T21:36:15.729Z,101578.81
2022-11-28T21:38:42.844Z,101592.19
2022-11-28T21:41:09.460Z,101586.16
2022-11-28T21:43:36.564Z,101600.03
2022-11-28T21:46:07.350Z,101602.69
2022-11-28T21:48:35.920Z,101603.66
2022-11-28T21:51:03.662Z,101605.34
2022-11-28T21:53:30.933Z,101614.25
2022-11-28T21:56:00.755Z,101610.75
2022-11-28T21:58:28.429Z,101621.13
2022-11-28T22:00:58.791Z,101616.81
2022-11-28T22:03:26.179Z,101606.28
2022-11-28T22:05:59.311Z,101626.44
2022-11-28T22:08:26.343Z,101632.59
2022-11-28T22:10:52.889Z,101628.25
2022-11-28T22:13:19.934Z,101637.06
2022-11-28T22:15:46.539Z,101635.25
2022-11-28T22:18:13.107Z,101640.56
2022-11-28T22:20:43.617Z,101632.59
2022-11-28T22:23:11.636Z,101631.88
2022-11-28T22:25:49.330Z,101636.22
2022-11-28T22:28:15.906Z,101629.94
2022-11-28T22:30:42.436Z,101635.25
2022-11-28T22:33:08.954Z,101638.75
2022-11-28T22:35:35.875Z,101638.88
2022-11-28T22:38:02.453Z,101644.06
2022-11-28T22:40:28.984Z,101643.22
2022-11-28T22:42:56.122Z,101652.03
2022-11-28T22:45:22.997Z,101649.38
2022-11-28T22:47:50.059Z,101655.53
2022-11-28T22:50:16.617Z,101658.31
2022-11-28T22:52:44.175Z,101652.03
2022-11-28T22:55:11.167Z,101654.69
2022-11-28T22:57:37.690Z,101654.69
2022-11-28T23:00:06.947Z,101654.81
2022-11-28T23:02:33.636Z,101658.19
2022-11-28T23:05:00.242Z,101657.34
2022-11-28T23:07:27.385Z,101657.34
2022-11-28T23:09:53.984Z,101657.34
2022-11-28T23:12:20.550Z,101661.81
2022-11-28T23:14:48.382Z,101666.28
2022-11-28T23:17:14.924Z,101656.50
2022-11-28T23:19:41.784Z,101664.59
2022-11-28T23:22:08.944Z,101666.28
2022-11-28T23:24:36.365Z,101641.69
2022-11-28T23:27:02.933Z,101662.78
2022-11-28T23:29:29.503Z,101659.28
2022-11-28T23:31:56.072Z,101662.78
2022-11-28T23:34:23.150Z,101662.78
2022-11-28T23:36:50.143Z,101653.25
2022-11-28T23:39:21.803Z,101651.44
2022-11-28T23:41:49.233Z,101648.56
2022-11-28T23:44:17.383Z,101665.56
2022-11-28T23:46:45.042Z,101665.69
2022-11-28T23:49:12.343Z,101677.03
2022-11-28T23:51:40.485Z,101674.38
2022-11-28T23:54:08.684Z,101665.94
2022-11-28T23:56:37.531Z,101666.63
2022-11-28T23:59:06.131Z,101674.50
